PATQ

Details ICAO PATQ (ATK)
Name ATQASUK EDWARD BURNELL SR MEM
Region USA (Alaska)
Timezone America/Anchorage (UTC-9.0)
Plans Departing 6
Arriving 8
Stats Elevation 96 ft / 29 m (AMSL)
Location 70.467100° -157.436000°
Runways 1
Magnetic Variation 12.653° E
Sunrise Unknown / Unknown
Sunset Unknown / Unknown
Advertisement - Login to hide

Runways

ID Width Length Bearing (true/mag) Surface Threshold Overrun Markings Lighting
06 89 ft / 27 m 4,374 ft / 1,333 m 81.04° / 68.38° GRAVEL 0 ft / 0 m 0 ft / 0 m VISUAL EDGE THRESHOLD REIL-OMNI
24 89 ft / 27 m 4,374 ft / 1,333 m 261.07° / 248.42° GRAVEL 0 ft / 0 m 0 ft / 0 m VISUAL EDGE THRESHOLD REIL-OMNI

Map

Weather


0- 5 10 15 20 25 30 35+ Temperature / °C

Clouds and Precipitation
Forecast for 2020-12-04 12:00 UTC. Updated 4 hours ago

Ground ~20,000 ft ~40,000 ft Winds

METAR

PATQ 041315Z AUTO 24027G33KT 3/4SM -SN BR FEW028 SCT036 BKN046 M09/M10 A2953 RMK AO2 PK WND 24035/1304 FZRANO TSNO PNO $

TAF

Not found

Frequencies

Recorded 119.92 MHz ASOS
Unicom 122.90 MHz CTAF
Warning: Do not use this data for real-world aviation or navigation. No guarantee of current accuracy is given.